Time;durP1;ratioP1;P1;durP2;ratioP2;P2;SDS_P1;SDS_P2;PMS_P1;PMS_P2;Temp;Humidity;BMP_temperature;BMP_pressure;BME280_temperature;BME280_humidity;BME280_pressure;Samples;Min_cycle;Max_cycle;Signal;HPM_P1;HPM_P2
2023/12/07 00:00:43;;;;;;;18.88;10.40;;;1.90;99.90;;;;;;5024047;28;20037;-59
2023/12/07 00:03:10;;;;;;;19.45;9.50;;;1.90;99.90;;;;;;5030614;28;20461;-60
2023/12/07 00:05:37;;;;;;;37.53;11.82;;;1.90;99.90;;;;;;5031436;28;20048;-60
2023/12/07 00:08:03;;;;;;;18.38;10.15;;;1.80;99.90;;;;;;5014769;28;20034;-60
2023/12/07 00:10:30;;;;;;;16.80;9.90;;;1.70;99.90;;;;;;5026712;28;20112;-60
2023/12/07 00:12:57;;;;;;;24.85;10.18;;;1.70;99.90;;;;;;5030709;28;20044;-59
2023/12/07 00:15:24;;;;;;;21.35;10.43;;;1.70;99.90;;;;;;5026130;28;20482;-60
2023/12/07 00:17:51;;;;;;;19.63;10.60;;;1.70;99.90;;;;;;5023909;28;20041;-57
2023/12/07 00:20:18;;;;;;;20.15;9.73;;;1.70;99.90;;;;;;5030494;28;20109;-60
2023/12/07 00:22:45;;;;;;;15.30;8.40;;;1.70;99.90;;;;;;5030637;28;20087;-60
2023/12/07 00:25:12;;;;;;;17.63;9.18;;;1.70;99.90;;;;;;5030597;28;20080;-60
2023/12/07 00:27:39;;;;;;;19.95;10.23;;;1.70;99.90;;;;;;5027483;28;20053;-60
2023/12/07 00:30:06;;;;;;;15.50;9.60;;;1.70;99.90;;;;;;5026310;28;20494;-60
2023/12/07 00:32:33;;;;;;;22.48;10.23;;;1.80;99.90;;;;;;5030549;28;20046;-59
2023/12/07 00:35:00;;;;;;;22.23;12.18;;;1.80;99.90;;;;;;5029100;28;20060;-59
2023/12/07 00:37:27;;;;;;;21.95;11.18;;;1.80;99.90;;;;;;5027584;28;20096;-60
2023/12/07 00:39:54;;;;;;;26.35;11.57;;;1.80;99.90;;;;;;5027527;28;20498;-59
2023/12/07 00:42:20;;;;;;;25.42;11.35;;;1.80;99.90;;;;;;5030637;28;20034;-60
2023/12/07 00:44:48;;;;;;;;;;;1.80;99.90;;;;;;5022407;28;20096;-60
2023/12/07 00:47:15;;;;;;;22.20;10.68;;;1.80;99.90;;;;;;5020667;28;19956;-59
2023/12/07 00:49:42;;;;;;;14.23;7.45;;;1.80;99.90;;;;;;5026087;28;20042;-59
2023/12/07 00:52:09;;;;;;;;;;;1.80;99.90;;;;;;5026646;28;20046;-59
2023/12/07 00:54:36;;;;;;;20.40;11.07;;;1.90;99.90;;;;;;5025161;28;19924;-59
2023/12/07 00:57:03;;;;;;;19.40;8.70;;;1.90;99.90;;;;;;5020707;28;20038;-59
2023/12/07 00:59:33;;;;;;;25.15;11.63;;;1.90;99.90;;;;;;5021381;28;20034;-59
2023/12/07 01:02:04;;;;;;;23.70;10.70;;;1.90;99.90;;;;;;5028708;28;20040;-59
2023/12/07 01:04:31;;;;;;;20.38;10.65;;;1.90;99.90;;;;;;5029540;28;20042;-60
2023/12/07 01:06:59;;;;;;;;;;;1.90;99.90;;;;;;5019282;28;20048;-59
2023/12/07 01:09:26;;;;;;;17.65;8.93;;;1.90;99.90;;;;;;5022453;28;19925;-60
2023/12/07 01:11:53;;;;;;;14.18;7.25;;;1.90;99.90;;;;;;5013509;28;20457;-59
2023/12/07 01:14:19;;;;;;;12.80;7.38;;;1.80;99.90;;;;;;5014795;28;20497;-60
2023/12/07 01:16:46;;;;;;;13.82;7.13;;;1.80;99.90;;;;;;5013085;28;20049;-60
2023/12/07 01:19:14;;;;;;;14.13;7.90;;;1.70;99.90;;;;;;5017699;28;20132;-60
2023/12/07 01:21:41;;;;;;;13.98;7.68;;;1.70;99.90;;;;;;5014083;28;20570;-60
2023/12/07 01:24:08;;;;;;;44.25;10.15;;;1.70;99.90;;;;;;5014638;28;20505;-60
2023/12/07 01:26:42;;;;;;;17.38;8.93;;;1.70;99.90;;;;;;5017520;28;20130;-60
2023/12/07 01:29:09;;;;;;;20.13;9.93;;;1.70;99.90;;;;;;5013731;28;20132;-60
2023/12/07 01:31:36;;;;;;;43.85;12.13;;;1.70;99.90;;;;;;5013213;28;20133;-60
2023/12/07 01:34:03;;;;;;;29.60;9.68;;;1.60;99.90;;;;;;5013687;28;20054;-60
2023/12/07 01:36:30;;;;;;;45.88;10.30;;;1.60;99.90;;;;;;5014290;28;20099;-60
2023/12/07 01:38:57;;;;;;;238.38;22.35;;;1.60;99.90;;;;;;5014683;28;20042;-60
2023/12/07 01:41:23;;;;;;;222.82;23.83;;;1.50;99.90;;;;;;5014126;28;20034;-59
2023/12/07 01:43:50;;;;;;;41.47;9.35;;;1.50;99.90;;;;;;5014365;28;20069;-60
2023/12/07 01:46:18;;;;;;;53.35;12.13;;;1.40;99.90;;;;;;5010482;28;20045;-58
2023/12/07 01:48:48;;;;;;;49.13;12.80;;;1.40;99.90;;;;;;5014067;28;20045;-59
2023/12/07 01:51:18;;;;;;;24.65;9.45;;;1.40;99.90;;;;;;5017213;28;20049;-60
2023/12/07 01:53:45;;;;;;;63.20;13.90;;;1.40;99.90;;;;;;5013177;28;20576;-60
2023/12/07 01:56:12;;;;;;;300.17;29.50;;;1.30;99.90;;;;;;5022164;28;20042;-60
2023/12/07 01:58:39;;;;;;;23.88;11.30;;;1.30;99.90;;;;;;5026535;28;20033;-60
2023/12/07 02:01:07;;;;;;;24.48;11.93;;;1.30;99.90;;;;;;5018118;28;20491;-60
2023/12/07 02:03:34;;;;;;;33.00;12.88;;;1.30;99.90;;;;;;5021196;28;20042;-60
2023/12/07 02:06:02;;;;;;;29.30;12.93;;;1.30;99.90;;;;;;5018264;28;20425;-60
2023/12/07 02:08:29;;;;;;;22.90;11.00;;;1.30;99.90;;;;;;5024798;28;20125;-60
2023/12/07 02:10:55;;;;;;;25.05;12.15;;;1.30;99.90;;;;;;5027359;28;20045;-60
2023/12/07 02:13:22;;;;;;;26.45;13.05;;;1.30;99.90;;;;;;5016302;28;20437;-59
2023/12/07 02:15:50;;;;;;;24.55;13.02;;;1.30;99.90;;;;;;5030276;28;20046;-60
2023/12/07 02:18:40;;;;;;;30.23;14.27;;;1.30;99.90;;;;;;5032932;28;20445;-59
2023/12/07 02:21:20;;;;;;;30.10;15.43;;;1.30;99.90;;;;;;5016842;28;20470;-59
2023/12/07 02:23:50;;;;;;;31.00;15.20;;;1.20;99.90;;;;;;5024839;28;20033;-60
2023/12/07 02:26:20;;;;;;;30.75;14.93;;;1.20;99.90;;;;;;5030906;28;20053;-60
2023/12/07 02:28:47;;;;;;;30.27;13.90;;;1.30;99.90;;;;;;5017007;28;20049;-60
2023/12/07 02:31:14;;;;;;;28.70;13.50;;;1.30;99.90;;;;;;5030713;28;20056;-60
2023/12/07 02:33:41;;;;;;;24.05;11.82;;;1.40;99.90;;;;;;5033012;28;20042;-59
2023/12/07 02:36:08;;;;;;;24.92;13.45;;;1.40;99.90;;;;;;5033001;28;20061;-60
2023/12/07 02:38:37;;;;;;;22.10;11.30;;;1.40;99.90;;;;;;5030924;28;20120;-60
2023/12/07 02:41:06;;;;;;;23.05;11.73;;;1.40;99.90;;;;;;5032857;28;20450;-60
2023/12/07 02:43:33;;;;;;;22.13;11.82;;;1.40;99.90;;;;;;5033045;28;20418;-60
2023/12/07 02:46:01;;;;;;;25.08;13.13;;;1.50;99.90;;;;;;5027210;28;20060;-60
2023/12/07 02:48:29;;;;;;;;;;;1.50;99.90;;;;;;5033380;28;20094;-59
2023/12/07 02:50:56;;;;;;;26.90;13.82;;;1.40;99.90;;;;;;5032839;28;20312;-59
2023/12/07 02:53:23;;;;;;;31.50;12.35;;;1.40;99.90;;;;;;5032231;28;20069;-60
2023/12/07 02:55:49;;;;;;;27.83;13.68;;;1.50;99.90;;;;;;5026170;28;20052;-59
2023/12/07 02:58:16;;;;;;;27.77;13.90;;;1.50;99.90;;;;;;5032325;28;20054;-60
2023/12/07 03:00:43;;;;;;;51.97;14.98;;;1.50;99.90;;;;;;5024165;28;20079;-60
2023/12/07 03:03:10;;;;;;;33.40;14.52;;;1.50;99.90;;;;;;5025509;28;20037;-60
2023/12/07 03:05:37;;;;;;;25.48;12.52;;;1.50;99.90;;;;;;5023746;28;20055;-60
2023/12/07 03:08:04;;;;;;;23.30;13.10;;;1.40;99.90;;;;;;5024454;28;20041;-60
2023/12/07 03:10:30;;;;;;;30.40;14.02;;;1.40;99.90;;;;;;5031721;28;20051;-59
2023/12/07 03:12:57;;;;;;;27.30;12.27;;;1.50;99.90;;;;;;5030950;28;20046;-60
2023/12/07 03:15:24;;;;;;;22.77;12.80;;;1.50;99.90;;;;;;5032262;28;20456;-59
2023/12/07 03:17:51;;;;;;;22.48;11.55;;;1.50;99.90;;;;;;5031464;28;20041;-60
2023/12/07 03:20:18;;;;;;;25.83;12.07;;;1.40;99.90;;;;;;5027082;28;20049;-60
2023/12/07 03:22:44;;;;;;;24.00;12.15;;;1.40;99.90;;;;;;5031876;28;20044;-60
2023/12/07 03:25:11;;;;;;;24.98;12.93;;;1.40;99.90;;;;;;5029174;28;20049;-61
2023/12/07 03:27:38;;;;;;;25.55;13.80;;;1.40;99.90;;;;;;5030878;28;20056;-60
2023/12/07 03:30:06;;;;;;;28.65;13.55;;;1.50;99.90;;;;;;5029289;28;20052;-60
2023/12/07 03:32:32;;;;;;;;;;;1.50;99.90;;;;;;5014554;28;20041;-59
2023/12/07 03:34:59;;;;;;;25.60;12.80;;;1.50;99.90;;;;;;5019537;28;19929;-60
2023/12/07 03:37:26;;;;;;;19.65;9.80;;;1.60;99.90;;;;;;5021256;28;20136;-60
2023/12/07 03:39:53;;;;;;;26.35;13.13;;;1.60;99.90;;;;;;5012713;28;20096;-60
2023/12/07 03:42:19;;;;;;;26.65;13.15;;;1.60;99.90;;;;;;5012690;28;20487;-60
2023/12/07 03:45:07;;;;;;;26.92;13.82;;;1.60;99.90;;;;;;5031657;28;20096;-60
2023/12/07 03:47:33;;;;;;;;;;;1.60;99.90;;;;;;5028655;28;20521;-60
2023/12/07 03:50:00;;;;;;;28.38;13.48;;;1.60;99.90;;;;;;5031719;28;19971;-60
2023/12/07 03:52:27;;;;;;;27.27;13.40;;;1.60;99.90;;;;;;5030902;28;20490;-60
2023/12/07 03:54:54;;;;;;;23.17;11.85;;;1.60;99.90;;;;;;5032009;28;20056;-60
2023/12/07 03:57:21;;;;;;;23.63;12.32;;;1.60;99.90;;;;;;5027478;28;20124;-58
2023/12/07 03:59:48;;;;;;;24.92;11.45;;;1.60;99.90;;;;;;5031580;28;20116;-60
2023/12/07 04:02:15;;;;;;;22.08;12.07;;;1.60;99.90;;;;;;5013927;28;20046;-60
2023/12/07 04:04:42;;;;;;;26.88;13.70;;;1.60;99.90;;;;;;5029269;28;20068;-59
2023/12/07 04:07:09;;;;;;;26.80;13.85;;;1.60;99.90;;;;;;5023322;28;20107;-60
2023/12/07 04:09:35;;;;;;;25.98;12.15;;;1.60;99.90;;;;;;5018695;28;20038;-59
2023/12/07 04:12:02;;;;;;;22.95;12.35;;;1.70;99.90;;;;;;5013240;28;20038;-59
2023/12/07 04:14:29;;;;;;;25.00;12.82;;;1.60;99.90;;;;;;5014738;28;20042;-60
2023/12/07 04:16:56;;;;;;;23.60;12.68;;;1.70;99.90;;;;;;5027142;28;20061;-60
2023/12/07 04:19:23;;;;;;;24.65;13.32;;;1.70;99.90;;;;;;5022760;28;20059;-60
2023/12/07 04:21:50;;;;;;;25.02;13.35;;;1.70;99.90;;;;;;5017744;28;20080;-59
2023/12/07 04:24:16;;;;;;;27.13;13.45;;;1.60;99.90;;;;;;5021458;28;20417;-60
2023/12/07 04:26:43;;;;;;;28.55;14.00;;;1.70;99.90;;;;;;5022147;28;20425;-60
2023/12/07 04:29:10;;;;;;;26.30;13.20;;;1.70;99.90;;;;;;5020990;28;20069;-60
2023/12/07 04:31:37;;;;;;;29.48;14.43;;;1.70;99.90;;;;;;5026564;28;20049;-60
2023/12/07 04:34:04;;;;;;;25.38;12.60;;;1.70;99.90;;;;;;5022114;28;20053;-59
2023/12/07 04:36:31;;;;;;;33.58;15.25;;;1.60;99.90;;;;;;5022845;28;20043;-58
2023/12/07 04:38:58;;;;;;;30.60;14.57;;;1.60;99.90;;;;;;5025294;28;20560;-60
2023/12/07 04:41:24;;;;;;;25.70;13.57;;;1.70;99.90;;;;;;5025861;28;20056;-60
2023/12/07 04:43:51;;;;;;;25.75;13.93;;;1.60;99.90;;;;;;5024354;28;20125;-60
2023/12/07 04:46:18;;;;;;;21.10;10.38;;;1.70;99.90;;;;;;5026059;28;20049;-58
2023/12/07 04:48:45;;;;;;;29.02;14.32;;;1.70;99.90;;;;;;5027613;28;20069;-60
2023/12/07 04:51:11;;;;;;;29.40;13.57;;;1.60;99.90;;;;;;5023751;28;20056;-60
2023/12/07 04:53:39;;;;;;;27.00;14.40;;;1.50;99.90;;;;;;5022274;28;20033;-59
2023/12/07 04:56:06;;;;;;;;;;;1.40;99.90;;;;;;5024317;28;20509;-60
2023/12/07 04:58:33;;;;;;;32.15;14.43;;;1.40;99.90;;;;;;5022121;28;20008;-60
2023/12/07 05:01:00;;;;;;;33.95;15.80;;;1.40;99.90;;;;;;5023608;28;20045;-60
2023/12/07 05:03:26;;;;;;;33.05;16.13;;;1.50;99.90;;;;;;5023772;28;20034;-59
2023/12/07 05:05:53;;;;;;;30.80;15.57;;;1.50;99.90;;;;;;5023276;28;20088;-60
2023/12/07 05:08:20;;;;;;;32.55;16.38;;;1.60;99.90;;;;;;5021847;28;20066;-60
2023/12/07 05:10:47;;;;;;;39.50;15.40;;;1.60;99.90;;;;;;5021443;28;20691;-59
2023/12/07 05:13:14;;;;;;;36.42;15.73;;;1.50;99.90;;;;;;5026054;28;20453;-59
2023/12/07 05:15:41;;;;;;;33.60;16.17;;;1.50;99.90;;;;;;5028006;28;20096;-60
2023/12/07 05:18:07;;;;;;;36.67;15.57;;;1.40;99.90;;;;;;5022882;28;20038;-60
2023/12/07 05:20:36;;;;;;;30.60;14.70;;;1.40;99.90;;;;;;5025307;28;20065;-59
2023/12/07 05:23:02;;;;;;;31.27;14.43;;;1.40;99.90;;;;;;5025194;28;20133;-60
2023/12/07 05:25:29;;;;;;;40.95;15.73;;;1.40;99.90;;;;;;5027794;28;20047;-60
2023/12/07 05:27:57;;;;;;;34.30;14.98;;;1.30;99.90;;;;;;5024830;28;20034;-59
2023/12/07 05:30:24;;;;;;;34.03;15.48;;;1.30;99.90;;;;;;5022337;28;20038;-60
2023/12/07 05:32:51;;;;;;;37.58;16.33;;;1.30;99.90;;;;;;5020466;28;20033;-59
2023/12/07 05:35:18;;;;;;;36.47;16.63;;;1.40;99.90;;;;;;5022847;28;20304;-60
2023/12/07 05:37:45;;;;;;;33.95;15.70;;;1.40;99.90;;;;;;5022575;28;20034;-60
2023/12/07 05:40:12;;;;;;;25.33;11.40;;;1.30;99.90;;;;;;5030768;28;20051;-60
2023/12/07 05:42:39;;;;;;;39.47;17.92;;;1.40;99.90;;;;;;5018852;28;20046;-60
2023/12/07 05:45:06;;;;;;;39.60;16.45;;;1.40;99.90;;;;;;5021269;28;20042;-60
2023/12/07 05:47:33;;;;;;;44.78;19.50;;;1.40;99.90;;;;;;5019955;28;20065;-59
2023/12/07 05:50:03;;;;;;;37.47;17.33;;;1.30;99.90;;;;;;5021580;28;20041;-59
2023/12/07 05:52:29;;;;;;;35.70;18.02;;;1.40;99.90;;;;;;5025242;28;20121;-60
2023/12/07 05:54:57;;;;;;;42.05;18.77;;;1.40;99.90;;;;;;5019286;28;20403;-60
2023/12/07 05:57:24;;;;;;;43.03;17.13;;;1.40;99.90;;;;;;5024928;28;20054;-59
2023/12/07 05:59:51;;;;;;;46.90;17.33;;;1.40;99.90;;;;;;5033031;28;20120;-60
2023/12/07 06:02:17;;;;;;;27.63;12.65;;;1.50;99.90;;;;;;5020365;28;20116;-60
2023/12/07 06:04:44;;;;;;;38.22;16.08;;;1.50;99.90;;;;;;5024790;28;20055;-60
2023/12/07 06:07:12;;;;;;;39.85;18.15;;;1.40;99.90;;;;;;5026451;28;20052;-60
2023/12/07 06:09:39;;;;;;;36.72;16.95;;;1.40;99.90;;;;;;5027124;28;20078;-60
2023/12/07 06:12:06;;;;;;;37.60;17.30;;;1.40;99.90;;;;;;5024424;28;20120;-59
2023/12/07 06:14:33;;;;;;;33.35;16.15;;;1.50;99.90;;;;;;5030443;28;20057;-60
2023/12/07 06:16:59;;;;;;;31.92;16.17;;;1.50;99.90;;;;;;5030489;28;20482;-61
2023/12/07 06:19:26;;;;;;;33.50;15.48;;;1.50;99.90;;;;;;5019983;28;20117;-59
2023/12/07 06:21:53;;;;;;;36.03;16.42;;;1.50;99.90;;;;;;5031818;28;20082;-60
2023/12/07 06:24:24;;;;;;;35.33;16.45;;;1.40;99.90;;;;;;5032296;28;20111;-60
2023/12/07 06:26:52;;;;;;;32.33;15.38;;;1.40;99.90;;;;;;5018750;28;20509;-60
2023/12/07 06:29:18;;;;;;;30.90;15.60;;;1.50;99.90;;;;;;5024580;28;20049;-60
2023/12/07 06:31:45;;;;;;;40.67;16.85;;;1.50;99.90;;;;;;5023265;28;20429;-60
2023/12/07 06:34:12;;;;;;;34.88;17.65;;;1.50;99.90;;;;;;5016745;28;20048;-59
2023/12/07 06:36:39;;;;;;;44.58;21.35;;;1.40;99.90;;;;;;5020316;28;20129;-59
2023/12/07 06:39:06;;;;;;;37.75;18.85;;;1.30;99.90;;;;;;5019093;28;20409;-60
2023/12/07 06:41:33;;;;;;;47.78;21.25;;;1.30;99.90;;;;;;5023602;28;20398;-59
2023/12/07 06:44:00;;;;;;;39.42;18.83;;;1.10;99.90;;;;;;5024296;28;20033;-60
2023/12/07 06:46:26;;;;;;;35.97;17.67;;;1.10;99.90;;;;;;5023287;28;20120;-59
2023/12/07 06:48:53;;;;;;;35.78;16.55;;;1.10;99.90;;;;;;5016076;28;20041;-60
2023/12/07 06:51:20;;;;;;;34.60;16.02;;;1.00;99.90;;;;;;5020358;28;20095;-60
2023/12/07 06:53:47;;;;;;;36.53;16.88;;;1.00;99.90;;;;;;5026415;28;20363;-60
2023/12/07 06:56:14;;;;;;;36.97;17.67;;;1.00;99.90;;;;;;5026659;28;20056;-59
2023/12/07 06:58:41;;;;;;;31.77;14.80;;;0.90;99.90;;;;;;5023478;28;20073;-60
2023/12/07 07:01:08;;;;;;;34.85;16.33;;;0.90;99.90;;;;;;5031273;28;20529;-60
2023/12/07 07:03:35;;;;;;;45.42;20.10;;;0.90;99.90;;;;;;5025227;28;20495;-59
2023/12/07 07:06:02;;;;;;;48.20;22.63;;;0.90;99.90;;;;;;5032132;28;20042;-60
2023/12/07 07:08:29;;;;;;;36.10;18.83;;;0.90;99.90;;;;;;5031757;28;20049;-60
2023/12/07 07:10:56;;;;;;;39.92;19.88;;;0.90;99.90;;;;;;5019429;28;20045;-62
2023/12/07 07:13:23;;;;;;;34.03;15.52;;;0.90;99.90;;;;;;5017929;28;20045;-60
2023/12/07 07:15:50;;;;;;;28.65;14.27;;;0.90;99.90;;;;;;5017754;28;20469;-59
2023/12/07 07:18:17;;;;;;;19.10;9.45;;;0.90;99.90;;;;;;5014321;28;20042;-59
2023/12/07 07:20:44;;;;;;;25.83;13.50;;;0.90;99.90;;;;;;5017673;28;20046;-60
2023/12/07 07:23:12;;;;;;;23.55;12.30;;;0.90;99.90;;;;;;5020104;28;20121;-58
2023/12/07 07:25:38;;;;;;;;;;;0.90;99.90;;;;;;5018765;28;20046;-59
2023/12/07 07:28:05;;;;;;;24.83;12.00;;;0.90;99.90;;;;;;5021483;28;19970;-59
2023/12/07 07:30:32;;;;;;;25.92;12.10;;;0.90;99.90;;;;;;5016909;28;20042;-61
2023/12/07 07:32:59;;;;;;;23.23;12.13;;;0.90;99.90;;;;;;5017896;28;20593;-60
2023/12/07 07:35:27;;;;;;;21.17;10.68;;;0.80;99.90;;;;;;5015710;28;20046;-59
2023/12/07 07:37:54;;;;;;;18.90;9.73;;;0.80;99.90;;;;;;5020202;28;20052;-61
2023/12/07 07:40:21;;;;;;;21.92;12.07;;;0.80;99.90;;;;;;5021709;28;20050;-60
2023/12/07 07:42:47;;;;;;;28.27;14.85;;;0.80;99.90;;;;;;5014178;28;20045;-61
2023/12/07 07:45:14;;;;;;;39.05;19.15;;;0.80;99.90;;;;;;5021776;28;20033;-60
2023/12/07 07:47:41;;;;;;;50.35;23.73;;;0.90;99.90;;;;;;5016528;28;20438;-61
2023/12/07 07:50:10;;;;;;;73.97;32.97;;;0.90;99.90;;;;;;5018418;28;20086;-60
2023/12/07 07:52:37;;;;;;;49.25;22.23;;;0.90;99.90;;;;;;5014733;28;20056;-60
2023/12/07 07:55:04;;;;;;;33.53;15.90;;;0.90;99.90;;;;;;5020364;28;20491;-60
2023/12/07 07:57:31;;;;;;;31.50;13.82;;;0.90;99.90;;;;;;5016747;28;20112;-60
2023/12/07 07:59:58;;;;;;;29.70;14.05;;;0.80;99.90;;;;;;5014377;28;20056;-60
2023/12/07 08:02:25;;;;;;;41.30;18.23;;;0.80;99.90;;;;;;5018051;28;20151;-60
2023/12/07 08:04:52;;;;;;;32.80;14.15;;;0.80;99.90;;;;;;5016681;28;20037;-60
2023/12/07 08:07:19;;;;;;;33.80;14.98;;;0.80;99.90;;;;;;5019520;28;20519;-60
2023/12/07 08:09:46;;;;;;;32.47;14.38;;;0.80;99.90;;;;;;5019087;28;20513;-60
2023/12/07 08:12:12;;;;;;;92.28;14.32;;;0.80;99.90;;;;;;5011901;28;20060;-60
2023/12/07 08:14:39;;;;;;;103.72;18.75;;;0.70;99.90;;;;;;5013968;28;20046;-60
2023/12/07 08:17:06;;;;;;;87.93;16.10;;;0.60;99.90;;;;;;5015645;28;20053;-60
2023/12/07 08:19:33;;;;;;;63.08;14.93;;;0.60;99.90;;;;;;5024832;28;20508;-60
2023/12/07 08:22:00;;;;;;;71.82;18.27;;;0.60;99.90;;;;;;5028272;28;20045;-60
2023/12/07 08:24:27;;;;;;;99.45;17.83;;;0.60;99.90;;;;;;5025751;28;20043;-59
2023/12/07 08:26:53;;;;;;;40.72;15.48;;;0.60;99.90;;;;;;5029764;28;20046;-61
2023/12/07 08:29:20;;;;;;;62.30;16.75;;;0.60;99.90;;;;;;5029014;28;20042;-60
2023/12/07 08:31:47;;;;;;;139.75;18.45;;;0.60;99.90;;;;;;5029113;28;20103;-60
2023/12/07 08:34:14;;;;;;;83.75;17.25;;;0.60;99.90;;;;;;5030667;28;20049;-61
2023/12/07 08:36:41;;;;;;;39.92;15.75;;;0.60;99.90;;;;;;5030985;28;20072;-60
2023/12/07 08:39:11;;;;;;;44.20;16.95;;;0.70;99.90;;;;;;5026193;28;20056;-60
2023/12/07 08:41:38;;;;;;;33.20;16.80;;;0.80;99.90;;;;;;5022413;28;20038;-59
2023/12/07 08:44:05;;;;;;;35.40;15.93;;;0.90;99.90;;;;;;5022345;28;20045;-60
2023/12/07 08:46:32;;;;;;;34.20;15.82;;;1.00;99.90;;;;;;5025617;28;20060;-60
2023/12/07 08:48:59;;;;;;;30.70;16.08;;;1.20;99.90;;;;;;5030615;28;20056;-59
2023/12/07 08:51:26;;;;;;;49.83;17.63;;;1.30;99.90;;;;;;5029231;28;20045;-61
2023/12/07 08:53:53;;;;;;;34.22;16.45;;;1.40;99.90;;;;;;5030632;28;20049;-59
2023/12/07 08:56:22;;;;;;;33.30;15.30;;;1.40;99.90;;;;;;5029481;28;20053;-60
2023/12/07 08:58:49;;;;;;;33.78;15.55;;;1.50;99.90;;;;;;5030073;28;20073;-61
2023/12/07 09:01:15;;;;;;;31.42;15.32;;;1.50;99.90;;;;;;5028966;28;20051;-60
2023/12/07 09:03:56;;;;;;;33.97;15.60;;;1.50;99.90;;;;;;5030331;28;20049;-59
2023/12/07 09:06:23;;;;;;;33.08;16.02;;;1.50;99.90;;;;;;5029809;28;20095;-61
2023/12/07 09:08:50;;;;;;;34.65;15.82;;;1.50;99.90;;;;;;5030403;28;20414;-60
2023/12/07 09:11:16;;;;;;;40.00;17.17;;;1.50;99.90;;;;;;5023890;28;20045;-60
2023/12/07 09:13:43;;;;;;;36.70;16.27;;;1.50;99.90;;;;;;5028636;28;20053;-59
2023/12/07 09:16:10;;;;;;;34.67;14.95;;;1.40;99.90;;;;;;5029917;28;20045;-60
2023/12/07 09:18:37;;;;;;;35.20;15.45;;;1.50;99.90;;;;;;5029374;28;20076;-60
2023/12/07 09:21:04;;;;;;;35.60;14.95;;;1.60;99.90;;;;;;5030312;28;20087;-61
2023/12/07 09:23:31;;;;;;;27.92;13.88;;;1.70;99.90;;;;;;5022897;28;20059;-60
2023/12/07 09:25:58;;;;;;;;;;;1.80;99.90;;;;;;5034459;28;20120;-60
2023/12/07 09:28:25;;;;;;;25.35;12.75;;;2.00;99.90;;;;;;5034146;28;20016;-60
2023/12/07 09:30:52;;;;;;;16.90;9.13;;;2.00;99.90;;;;;;5024858;28;20034;-60
2023/12/07 09:33:19;;;;;;;22.20;11.43;;;2.00;99.90;;;;;;5027034;28;20052;-60
2023/12/07 09:35:48;;;;;;;23.10;11.88;;;2.10;99.90;;;;;;5032071;28;20141;-61
2023/12/07 09:38:16;;;;;;;21.85;12.55;;;2.20;99.90;;;;;;5033800;28;20049;-61
2023/12/07 09:40:44;;;;;;;23.52;12.57;;;2.20;99.90;;;;;;5023508;28;20037;-59
2023/12/07 09:43:12;;;;;;;22.75;11.38;;;2.30;99.90;;;;;;5025180;28;20045;-59
2023/12/07 09:45:39;;;;;;;27.77;13.57;;;2.40;99.90;;;;;;5031479;28;20115;-60
2023/12/07 09:48:08;;;;;;;17.23;10.65;;;2.50;99.90;;;;;;5021468;28;20071;-61
2023/12/07 09:50:35;;;;;;;25.13;12.52;;;2.50;99.90;;;;;;5032607;28;20461;-60
2023/12/07 09:53:02;;;;;;;25.13;13.15;;;2.40;99.90;;;;;;5032292;28;20069;-60
2023/12/07 09:55:35;;;;;;;20.27;10.85;;;2.40;99.90;;;;;;5032256;28;20053;-60
2023/12/07 09:58:05;;;;;;;22.08;11.30;;;2.40;99.90;;;;;;5033076;28;20490;-60
2023/12/07 10:00:34;;;;;;;24.95;11.32;;;2.50;99.90;;;;;;5033039;28;20045;-60
2023/12/07 10:03:01;;;;;;;24.98;12.65;;;2.60;99.90;;;;;;5027498;28;20056;-60
2023/12/07 10:05:28;;;;;;;19.98;11.93;;;2.80;99.90;;;;;;5033275;28;20048;-60
2023/12/07 10:07:55;;;;;;;23.42;11.95;;;2.80;99.90;;;;;;5033171;28;20045;-60
2023/12/07 10:10:22;;;;;;;23.35;11.40;;;2.90;99.90;;;;;;5029708;28;20060;-60
2023/12/07 10:12:58;;;;;;;22.75;12.27;;;3.00;99.90;;;;;;5029581;28;20095;-60
2023/12/07 10:15:25;;;;;;;22.20;12.00;;;3.20;99.90;;;;;;5032935;28;20104;-60
2023/12/07 10:17:55;;;;;;;25.25;12.40;;;3.20;99.90;;;;;;5033224;28;20081;-61
2023/12/07 10:20:23;;;;;;;23.70;12.57;;;3.20;99.90;;;;;;5031659;28;20394;-60
2023/12/07 10:23:08;;;;;;;25.80;14.13;;;3.20;99.90;;;;;;5032304;28;20037;-60
2023/12/07 10:25:43;;;;;;;22.13;11.55;;;3.30;99.90;;;;;;5032838;28;20045;-60
2023/12/07 10:28:13;;;;;;;26.92;14.48;;;3.30;99.90;;;;;;5030197;28;20429;-60
2023/12/07 10:30:41;;;;;;;25.77;14.05;;;3.20;99.90;;;;;;5032607;28;20037;-60
2023/12/07 10:33:10;;;;;;;20.58;12.85;;;3.30;99.90;;;;;;5029540;28;20483;-60
2023/12/07 10:35:41;;;;;;;;;;;3.10;99.90;;;;;;5033090;28;20064;-59
2023/12/07 10:38:09;;;;;;;22.02;12.25;;;3.00;99.90;;;;;;5031649;28;20433;-60
2023/12/07 10:40:36;;;;;;;;;;;2.80;99.90;;;;;;5031688;28;20047;-60
2023/12/07 10:43:05;;;;;;;22.60;10.38;;;2.90;99.90;;;;;;5020640;28;19944;-60
2023/12/07 10:45:34;;;;;;;24.45;12.07;;;2.80;99.90;;;;;;5025093;28;20041;-60
2023/12/07 10:48:07;;;;;;;29.88;13.35;;;2.70;99.90;;;;;;5022346;28;20042;-60
2023/12/07 10:50:37;;;;;;;21.17;10.85;;;2.70;99.90;;;;;;5031546;28;20046;-59
2023/12/07 10:53:11;;;;;;;23.10;11.13;;;2.60;99.90;;;;;;5031332;28;20383;-60
2023/12/07 10:55:55;;;;;;;23.50;11.68;;;2.70;99.90;;;;;;5027285;28;20038;-60
2023/12/07 10:58:26;;;;;;;25.77;12.10;;;2.80;99.90;;;;;;5025060;28;20044;-60
2023/12/07 11:00:54;;;;;;;26.30;12.13;;;3.00;99.90;;;;;;5026897;28;20459;-60
2023/12/07 11:03:22;;;;;;;24.90;10.52;;;3.10;99.90;;;;;;5031852;28;20060;-60
2023/12/07 11:05:50;;;;;;;19.92;10.15;;;3.20;99.90;;;;;;5031745;28;20033;-60
2023/12/07 11:08:38;;;;;;;27.02;11.32;;;3.30;99.90;;;;;;5031991;28;20033;-60
2023/12/07 11:11:12;;;;;;;15.07;7.57;;;3.30;99.90;;;;;;5029983;28;20120;-60
2023/12/07 11:13:47;;;;;;;22.73;10.95;;;3.20;99.90;;;;;;5029608;28;20119;-60
2023/12/07 11:16:14;;;;;;;21.13;10.25;;;3.10;99.90;;;;;;5031756;28;20056;-60
2023/12/07 11:18:41;;;;;;;15.98;9.10;;;3.00;99.90;;;;;;5030851;28;20132;-60
2023/12/07 11:21:08;;;;;;;14.57;8.43;;;3.00;99.90;;;;;;5031392;28;20036;-60
2023/12/07 11:23:36;;;;;;;18.58;9.68;;;2.90;99.90;;;;;;5030423;28;20055;-59
2023/12/07 11:26:03;;;;;;;18.52;9.80;;;2.90;99.90;;;;;;5031560;28;20045;-60
2023/12/07 11:28:34;;;;;;;;;;;2.90;99.90;;;;;;5031840;28;20529;-60
2023/12/07 11:31:02;;;;;;;17.25;10.05;;;2.90;99.90;;;;;;5031394;28;19925;-60
2023/12/07 11:33:30;;;;;;;16.75;9.20;;;3.10;99.90;;;;;;5025787;28;20045;-60
2023/12/07 11:36:16;;;;;;;18.42;10.48;;;3.10;99.90;;;;;;5031235;28;20454;-61
2023/12/07 11:39:01;;;;;;;21.50;11.30;;;3.10;99.90;;;;;;5029830;28;20107;-60
2023/12/07 11:41:35;;;;;;;18.90;10.15;;;3.30;99.90;;;;;;5019220;28;20108;-60
2023/12/07 11:44:02;;;;;;;18.73;10.05;;;3.30;99.90;;;;;;5020524;28;20523;-60
2023/12/07 11:46:29;;;;;;;19.70;9.55;;;3.40;99.90;;;;;;5016169;28;20050;-60
2023/12/07 11:48:58;;;;;;;19.70;11.00;;;3.40;99.90;;;;;;5015145;28;20545;-60
2023/12/07 11:51:26;;;;;;;18.80;10.70;;;3.30;99.90;;;;;;5014995;28;20116;-60
2023/12/07 11:53:53;;;;;;;18.85;9.40;;;3.30;99.90;;;;;;5029953;28;20140;-60
2023/12/07 11:56:21;;;;;;;18.83;9.43;;;3.30;99.90;;;;;;5029460;28;20401;-59
2023/12/07 11:58:49;;;;;;;16.08;9.50;;;3.20;99.90;;;;;;5031339;28;20336;-60
2023/12/07 12:01:17;;;;;;;15.25;8.43;;;3.20;99.90;;;;;;5030199;28;20052;-61
2023/12/07 12:03:44;;;;;;;15.60;8.15;;;3.10;99.90;;;;;;5030041;28;20569;-60
2023/12/07 12:06:11;;;;;;;16.42;9.27;;;3.10;99.90;;;;;;5030910;28;20438;-60
2023/12/07 12:08:41;;;;;;;18.25;8.63;;;3.10;99.90;;;;;;5031181;28;20042;-61
2023/12/07 12:11:08;;;;;;;15.05;8.95;;;3.20;99.90;;;;;;5030817;28;20037;-60
2023/12/07 12:13:36;;;;;;;19.30;9.52;;;3.20;99.90;;;;;;5023606;28;20045;-61
2023/12/07 12:16:04;;;;;;;16.70;9.30;;;3.20;99.90;;;;;;5030732;28;20490;-61
2023/12/07 12:18:33;;;;;;;17.08;9.45;;;3.30;99.90;;;;;;5030033;28;20116;-60
2023/12/07 12:21:01;;;;;;;14.57;8.32;;;3.30;99.90;;;;;;5030688;28;20073;-60
2023/12/07 12:23:28;;;;;;;16.02;8.50;;;3.30;99.90;;;;;;5019256;28;20041;-60
2023/12/07 12:25:56;;;;;;;15.80;9.27;;;3.20;99.90;;;;;;5026863;28;20445;-61
2023/12/07 12:28:24;;;;;;;19.25;9.60;;;3.30;99.90;;;;;;5030810;28;20073;-61
2023/12/07 12:30:52;;;;;;;18.63;8.55;;;3.20;99.90;;;;;;5025009;28;20320;-60
2023/12/07 12:33:19;;;;;;;16.63;9.15;;;3.20;99.90;;;;;;5029651;28;20084;-60
2023/12/07 12:35:46;;;;;;;15.25;8.98;;;3.10;99.90;;;;;;5027406;28;20045;-61
2023/12/07 12:38:13;;;;;;;17.58;9.35;;;3.10;99.90;;;;;;5030821;28;20116;-61
2023/12/07 12:40:53;;;;;;;14.20;7.40;;;3.10;99.90;;;;;;5030756;28;20042;-60
2023/12/07 12:43:21;;;;;;;13.73;7.82;;;3.10;99.90;;;;;;5029113;28;20050;-59
2023/12/07 12:45:49;;;;;;;16.95;8.70;;;3.30;99.90;;;;;;5023697;28;20042;-60